createdAt,value
2018-11-14T00:02:27.121Z,20.00
2018-11-14T00:04:57.144Z,17.63
2018-11-14T00:07:27.211Z,20.07
2018-11-14T00:09:57.317Z,18.20
2018-11-14T00:12:27.633Z,18.10
2018-11-14T00:14:57.685Z,17.80
2018-11-14T00:17:27.795Z,17.07
2018-11-14T00:19:57.849Z,18.27
2018-11-14T00:22:27.965Z,19.53
2018-11-14T00:24:58.053Z,16.30
2018-11-14T00:27:28.100Z,17.60
2018-11-14T00:29:58.081Z,18.80
2018-11-14T00:32:28.205Z,16.97
2018-11-14T00:34:58.887Z,19.43
2018-11-14T00:37:28.488Z,15.63
2018-11-14T00:39:58.468Z,20.53
2018-11-14T00:42:28.476Z,16.47
2018-11-14T00:44:58.572Z,14.00
2018-11-14T00:47:28.664Z,19.10
2018-11-14T00:49:58.753Z,20.40
2018-11-14T00:52:28.857Z,17.80
2018-11-14T00:54:58.878Z,18.50
2018-11-14T00:57:28.941Z,18.77
2018-11-14T00:59:59.089Z,19.20
2018-11-14T01:02:29.138Z,17.90
2018-11-14T01:04:59.258Z,19.00
2018-11-14T01:07:29.322Z,18.63
2018-11-14T01:09:59.448Z,17.07
2018-11-14T01:12:29.631Z,20.17
2018-11-14T01:14:59.690Z,18.23
2018-11-14T01:17:29.654Z,17.70
2018-11-14T01:19:59.771Z,20.73
2018-11-14T01:22:29.858Z,17.20
2018-11-14T01:24:59.817Z,21.43
2018-11-14T01:27:29.875Z,18.93
2018-11-14T01:29:59.921Z,20.50
2018-11-14T01:32:30.007Z,18.37
2018-11-14T01:35:00.140Z,18.53
2018-11-14T01:37:30.189Z,18.83
2018-11-14T01:40:00.225Z,17.93
2018-11-14T01:42:30.305Z,16.80
2018-11-14T01:45:07.753Z,17.93
2018-11-14T01:47:37.799Z,21.03
2018-11-14T01:50:09.182Z,22.67
2018-11-14T01:52:39.686Z,21.93
2018-11-14T01:55:11.719Z,18.53
2018-11-14T01:57:41.738Z,26.40
2018-11-14T02:00:15.096Z,22.53
2018-11-14T02:02:45.114Z,31.77
2018-11-14T02:05:15.213Z,33.47
2018-11-14T02:07:45.286Z,47.00
2018-11-14T02:10:16.680Z,39.73
2018-11-14T02:12:46.904Z,22.23
2018-11-14T02:15:18.654Z,29.17
2018-11-14T02:17:48.701Z,33.60
2018-11-14T02:20:18.857Z,24.37
2018-11-14T02:22:49.002Z,20.27
2018-11-14T02:25:19.209Z,23.77
2018-11-14T02:27:49.328Z,20.17
2018-11-14T02:30:22.177Z,20.83
2018-11-14T02:32:52.194Z,25.47
2018-11-14T02:35:22.211Z,20.83
2018-11-14T02:37:52.244Z,32.63
2018-11-14T02:40:22.921Z,22.30
2018-11-14T02:42:52.929Z,27.20
2018-11-14T02:45:23.044Z,21.73
2018-11-14T02:47:53.047Z,19.63
2018-11-14T02:50:23.122Z,19.33
2018-11-14T02:52:53.177Z,17.03
2018-11-14T02:55:23.305Z,17.47
2018-11-14T02:57:53.318Z,17.07
2018-11-14T03:00:23.425Z,19.63
2018-11-14T03:02:53.457Z,15.83
2018-11-14T03:05:23.558Z,16.27
2018-11-14T03:07:53.641Z,17.27
2018-11-14T03:10:23.707Z,20.33
2018-11-14T03:12:53.704Z,17.13
2018-11-14T03:15:24.221Z,17.37
2018-11-14T03:17:54.267Z,17.63
2018-11-14T03:20:24.394Z,17.73
2018-11-14T03:22:54.427Z,17.30
2018-11-14T03:25:24.562Z,18.90
2018-11-14T03:27:54.571Z,21.20
2018-11-14T03:30:24.681Z,22.43
2018-11-14T03:32:54.772Z,20.13
2018-11-14T03:35:25.037Z,19.57
2018-11-14T03:37:55.173Z,22.97
2018-11-14T03:40:25.389Z,22.67
2018-11-14T03:42:55.458Z,22.53
2018-11-14T03:45:25.508Z,22.70
2018-11-14T03:47:55.556Z,24.60
2018-11-14T03:50:25.668Z,18.77
2018-11-14T03:52:55.799Z,20.37
2018-11-14T03:55:25.898Z,18.87
2018-11-14T03:57:55.910Z,38.03
2018-11-14T04:00:25.932Z,24.33
2018-11-14T04:02:56.016Z,27.30
2018-11-14T04:05:26.058Z,34.07
2018-11-14T04:07:56.115Z,28.03
2018-11-14T04:10:26.169Z,26.90
2018-11-14T04:12:56.260Z,38.17
2018-11-14T04:15:26.528Z,25.70
2018-11-14T04:17:56.571Z,23.43
2018-11-14T04:20:26.580Z,21.80
2018-11-14T04:22:56.720Z,26.97
2018-11-14T04:25:26.848Z,31.43
2018-11-14T04:27:56.977Z,24.37
2018-11-14T04:30:27.085Z,20.67
2018-11-14T04:32:58.031Z,23.97
2018-11-14T04:35:28.161Z,22.83
2018-11-14T04:37:58.373Z,36.87
2018-11-14T04:40:28.132Z,27.90
2018-11-14T04:43:00.107Z,36.13
2018-11-14T04:45:30.128Z,35.73
2018-11-14T04:48:02.017Z,42.77
2018-11-14T04:50:33.162Z,35.00
2018-11-14T04:53:04.218Z,30.03
2018-11-14T04:55:34.182Z,41.10
2018-11-14T04:58:04.230Z,29.10
2018-11-14T05:00:34.199Z,33.00
2018-11-14T05:03:04.249Z,27.87
2018-11-14T05:05:34.429Z,25.73
2018-11-14T05:08:05.848Z,34.23
2018-11-14T05:10:35.949Z,28.67
2018-11-14T05:13:06.160Z,23.70
2018-11-14T05:15:37.149Z,16.00
2018-11-14T05:18:07.480Z,15.83
2018-11-14T05:20:37.512Z,16.50
2018-11-14T05:23:12.479Z,17.00
2018-11-14T05:25:42.462Z,17.80
2018-11-14T05:28:12.411Z,22.47
2018-11-14T05:30:42.634Z,35.87
2018-11-14T05:33:12.759Z,40.80
2018-11-14T05:35:45.464Z,35.03
2018-11-14T05:38:15.596Z,23.93
2018-11-14T05:40:45.600Z,42.33
2018-11-14T05:43:15.676Z,32.70
2018-11-14T05:45:45.760Z,24.60
2018-11-14T05:48:16.954Z,43.50
2018-11-14T05:50:47.027Z,34.43
2018-11-14T05:53:17.152Z,24.40
2018-11-14T05:55:47.214Z,38.30
2018-11-14T05:58:17.274Z,27.10
2018-11-14T06:00:47.386Z,31.87
2018-11-14T06:03:17.381Z,22.87
2018-11-14T06:05:47.410Z,19.80
2018-11-14T06:08:17.376Z,27.43
2018-11-14T06:10:48.423Z,26.57
2018-11-14T06:13:18.502Z,35.47
2018-11-14T06:15:48.704Z,27.67
2018-11-14T06:18:18.699Z,38.57
2018-11-14T06:20:48.827Z,48.90
2018-11-14T06:23:19.911Z,35.30
2018-11-14T06:25:50.013Z,29.67
2018-11-14T06:28:20.117Z,27.63
2018-11-14T06:30:50.296Z,45.40
2018-11-14T06:33:20.426Z,48.40
2018-11-14T06:35:50.495Z,21.50
2018-11-14T06:38:22.613Z,32.50
2018-11-14T06:40:52.664Z,28.57
2018-11-14T06:43:22.888Z,22.17
2018-11-14T06:45:53.225Z,19.10
2018-11-14T06:48:24.299Z,18.30
2018-11-14T06:50:54.333Z,19.40
2018-11-14T06:53:24.337Z,38.43
2018-11-14T06:55:55.319Z,21.57
2018-11-14T06:58:25.335Z,20.30
2018-11-14T07:00:55.343Z,18.17
2018-11-14T07:03:25.522Z,22.23
2018-11-14T07:05:55.639Z,22.43
2018-11-14T07:08:25.522Z,22.23
2018-11-14T07:10:55.524Z,22.90
2018-11-14T07:13:25.537Z,29.63
2018-11-14T07:15:55.545Z,25.60
2018-11-14T07:18:25.610Z,24.67
2018-11-14T07:20:55.615Z,23.27
2018-11-14T07:23:25.679Z,26.80
2018-11-14T07:25:55.784Z,22.13
2018-11-14T07:28:25.877Z,21.23
2018-11-14T07:30:55.873Z,23.00
2018-11-14T07:33:25.910Z,23.77
2018-11-14T07:35:55.996Z,21.83
2018-11-14T07:38:47.401Z,22.50
2018-11-14T07:41:19.590Z,19.20
2018-11-14T07:43:49.675Z,20.33
2018-11-14T07:46:19.825Z,20.43
2018-11-14T07:48:50.448Z,23.00
2018-11-14T07:51:20.450Z,20.17
2018-11-14T07:53:50.586Z,18.83
2018-11-14T07:56:20.611Z,19.73
2018-11-14T07:58:50.718Z,19.63
2018-11-14T08:01:20.688Z,20.33
2018-11-14T08:03:50.766Z,22.03
2018-11-14T08:06:20.863Z,19.40
2018-11-14T08:08:50.959Z,20.17
2018-11-14T08:11:21.070Z,20.13
2018-11-14T08:13:51.046Z,18.00
2018-11-14T08:16:21.075Z,20.17
2018-11-14T08:18:51.185Z,20.03
2018-11-14T08:21:21.137Z,22.00
2018-11-14T08:23:51.182Z,18.63
2018-11-14T08:26:21.298Z,19.87
2018-11-14T08:28:51.463Z,20.60
2018-11-14T08:31:21.442Z,20.57
2018-11-14T08:33:51.543Z,19.97
2018-11-14T08:36:21.560Z,20.23
2018-11-14T08:38:51.672Z,20.07
2018-11-14T08:41:21.742Z,19.13
2018-11-14T08:43:51.788Z,18.97
2018-11-14T08:46:21.771Z,18.90
2018-11-14T08:48:51.782Z,17.83
2018-11-14T08:51:21.790Z,22.37
2018-11-14T08:53:51.798Z,17.47
2018-11-14T08:56:21.784Z,17.60
2018-11-14T08:58:51.715Z,19.13
2018-11-14T09:01:21.685Z,19.43
2018-11-14T09:03:51.719Z,19.17
2018-11-14T09:06:21.717Z,19.77
2018-11-14T09:08:51.532Z,16.67
2018-11-14T09:11:33.018Z,17.57
2018-11-14T09:14:03.079Z,18.57
2018-11-14T09:16:33.155Z,21.27
2018-11-14T09:19:03.153Z,17.47
2018-11-14T09:21:33.076Z,18.67
2018-11-14T09:24:03.030Z,19.03
2018-11-14T09:26:32.962Z,21.77
2018-11-14T09:29:02.904Z,16.80
2018-11-14T09:31:32.958Z,19.37
2018-11-14T09:34:02.999Z,20.13
2018-11-14T09:36:32.950Z,16.73
2018-11-14T09:39:02.961Z,21.33
2018-11-14T09:41:33.041Z,23.37
2018-11-14T09:44:02.908Z,23.27
2018-11-14T09:46:32.861Z,18.93
2018-11-14T09:49:02.897Z,19.87
2018-11-14T09:51:32.888Z,17.30
2018-11-14T09:54:02.833Z,18.13
2018-11-14T09:56:32.862Z,18.93
2018-11-14T09:59:02.934Z,19.27
2018-11-14T10:01:32.951Z,19.17
2018-11-14T10:04:02.909Z,17.67
2018-11-14T10:06:32.945Z,19.63
2018-11-14T10:09:02.938Z,20.50
2018-11-14T10:11:32.923Z,19.63
2018-11-14T10:14:02.929Z,19.87
2018-11-14T10:16:32.872Z,18.20
2018-11-14T10:19:02.943Z,21.37
2018-11-14T10:21:33.077Z,22.67
2018-11-14T10:24:03.120Z,20.53
2018-11-14T10:26:33.096Z,19.10
2018-11-14T10:29:03.070Z,21.30
2018-11-14T10:31:33.052Z,19.93
2018-11-14T10:34:03.068Z,20.43
2018-11-14T10:36:33.058Z,18.23
2018-11-14T10:39:03.222Z,21.03
2018-11-14T10:41:32.884Z,20.27
2018-11-14T10:44:02.892Z,18.90
2018-11-14T10:46:32.868Z,18.40
2018-11-14T10:49:02.815Z,18.00
2018-11-14T10:51:32.857Z,17.13
2018-11-14T10:54:02.946Z,18.33
2018-11-14T10:56:33.038Z,17.43
2018-11-14T10:59:03.044Z,13.90
2018-11-14T11:01:38.127Z,15.43
2018-11-14T11:04:13.083Z,17.00
2018-11-14T11:06:48.216Z,18.57
2018-11-14T11:09:23.345Z,15.93
2018-11-14T11:11:58.434Z,13.77
2018-11-14T11:14:35.349Z,13.70
2018-11-14T11:17:10.483Z,16.37
2018-11-14T11:19:40.504Z,19.70
2018-11-14T11:22:10.524Z,17.83
2018-11-14T11:24:40.581Z,17.37
2018-11-14T11:27:10.677Z,15.17
2018-11-14T11:29:40.752Z,20.77
2018-11-14T11:32:10.857Z,21.97
2018-11-14T11:34:40.842Z,21.23
2018-11-14T11:37:10.879Z,23.67
2018-11-14T11:39:40.846Z,19.93
2018-11-14T11:42:10.926Z,18.20
2018-11-14T11:44:40.965Z,12.50
2018-11-14T11:47:10.986Z,14.30
2018-11-14T11:49:40.971Z,13.37
2018-11-14T11:52:11.018Z,14.43
2018-11-14T11:54:41.029Z,13.97
2018-11-14T11:57:11.025Z,12.40
2018-11-14T11:59:41.145Z,11.53
2018-11-14T12:02:11.094Z,14.30
2018-11-14T12:04:41.053Z,11.13
2018-11-14T12:07:11.139Z,11.87
2018-11-14T12:09:41.187Z,13.27
2018-11-14T12:12:11.272Z,11.83
2018-11-14T12:14:41.285Z,10.50
2018-11-14T12:17:11.381Z,12.03
2018-11-14T12:19:41.363Z,9.13
2018-11-14T12:22:11.450Z,10.57
2018-11-14T12:24:41.386Z,11.63
2018-11-14T12:27:11.476Z,9.87
2018-11-14T12:29:41.484Z,10.73
2018-11-14T12:32:11.612Z,12.03
2018-11-14T12:34:41.683Z,10.17
2018-11-14T12:37:11.558Z,10.97
2018-11-14T12:39:41.584Z,8.73
2018-11-14T12:42:11.629Z,12.47
2018-11-14T12:44:41.752Z,11.73
2018-11-14T12:47:11.728Z,9.23
2018-11-14T12:49:41.713Z,9.43
2018-11-14T12:52:11.760Z,8.80
2018-11-14T12:54:41.742Z,10.90
2018-11-14T12:57:11.831Z,10.00
2018-11-14T12:59:41.951Z,9.43
2018-11-14T13:02:11.875Z,12.90
2018-11-14T13:04:41.997Z,13.53
2018-11-14T13:07:11.983Z,8.80
2018-11-14T13:09:42.085Z,10.93
2018-11-14T13:12:12.072Z,9.40
2018-11-14T13:14:42.099Z,12.77
2018-11-14T13:17:12.163Z,8.67
2018-11-14T13:19:42.217Z,8.97
2018-11-14T13:22:12.250Z,9.13
2018-11-14T13:24:42.251Z,8.80
2018-11-14T13:27:12.345Z,11.83
2018-11-14T13:29:42.394Z,9.83
2018-11-14T13:32:12.428Z,8.27
2018-11-14T13:34:42.453Z,9.90
2018-11-14T13:37:12.524Z,9.43
2018-11-14T13:39:42.526Z,11.57
2018-11-14T13:42:12.498Z,7.57
2018-11-14T13:44:42.541Z,7.80
2018-11-14T13:47:12.597Z,8.27
2018-11-14T13:49:42.703Z,12.23
2018-11-14T13:52:12.556Z,9.13
2018-11-14T13:54:42.601Z,9.50
2018-11-14T13:57:12.702Z,9.97
2018-11-14T13:59:42.692Z,7.67
2018-11-14T14:02:12.713Z,8.93
2018-11-14T14:04:42.757Z,9.73
2018-11-14T14:07:12.810Z,9.53
2018-11-14T14:09:42.941Z,8.57
2018-11-14T14:12:12.939Z,9.00
2018-11-14T14:14:42.954Z,6.97
2018-11-14T14:17:12.951Z,8.70
2018-11-14T14:19:42.992Z,7.97
2018-11-14T14:22:13.011Z,6.00
2018-11-14T14:24:42.972Z,6.40
2018-11-14T14:27:13.111Z,7.47
2018-11-14T14:29:43.056Z,8.33
2018-11-14T14:32:13.036Z,8.97
2018-11-14T14:34:43.014Z,8.57
2018-11-14T14:37:13.099Z,8.30
2018-11-14T14:39:43.172Z,12.10
2018-11-14T14:42:13.258Z,7.83
2018-11-14T14:44:43.332Z,7.30
2018-11-14T14:47:13.414Z,7.50
2018-11-14T14:49:43.469Z,8.63
2018-11-14T14:52:13.559Z,7.90
2018-11-14T14:54:43.613Z,7.67
2018-11-14T14:57:13.595Z,8.73
2018-11-14T14:59:43.715Z,7.87
2018-11-14T15:02:13.728Z,6.60
2018-11-14T15:04:43.888Z,7.10
2018-11-14T15:07:13.826Z,6.90
2018-11-14T15:09:44.016Z,7.30
2018-11-14T15:12:14.082Z,6.70
2018-11-14T15:14:44.027Z,7.30
2018-11-14T15:17:14.042Z,6.60
2018-11-14T15:19:44.126Z,6.67
2018-11-14T15:22:14.116Z,6.63
2018-11-14T15:24:44.154Z,10.03
2018-11-14T15:27:14.321Z,7.30
2018-11-14T15:29:44.427Z,7.10
2018-11-14T15:32:14.561Z,7.43
2018-11-14T15:34:44.615Z,6.97
2018-11-14T15:37:14.723Z,7.60
2018-11-14T15:39:44.770Z,9.47
2018-11-14T15:42:14.715Z,10.00
2018-11-14T15:44:44.683Z,6.63
2018-11-14T15:47:14.679Z,7.47
2018-11-14T15:49:44.692Z,7.67
2018-11-14T15:52:14.710Z,7.87
2018-11-14T15:54:44.761Z,7.70
2018-11-14T15:57:14.837Z,8.83
2018-11-14T15:59:44.928Z,7.33
2018-11-14T16:02:14.975Z,8.13
2018-11-14T16:04:45.030Z,7.47
2018-11-14T16:07:15.037Z,8.17
2018-11-14T16:09:45.070Z,7.83
2018-11-14T16:12:15.187Z,13.90
2018-11-14T16:14:45.310Z,8.63
2018-11-14T16:17:15.258Z,8.37
2018-11-14T16:19:45.246Z,7.90
2018-11-14T16:22:15.266Z,7.90
2018-11-14T16:24:45.385Z,8.43
2018-11-14T16:27:15.597Z,8.90
2018-11-14T16:29:45.546Z,9.77
2018-11-14T16:32:15.704Z,9.97
2018-11-14T16:34:45.658Z,8.80
2018-11-14T16:37:15.681Z,7.10
2018-11-14T16:39:45.685Z,8.67
2018-11-14T16:42:15.475Z,9.63
2018-11-14T16:44:45.506Z,10.63
2018-11-14T16:47:15.564Z,11.13
2018-11-14T16:49:45.582Z,8.43
2018-11-14T16:52:15.607Z,10.47
2018-11-14T16:54:45.662Z,10.20
2018-11-14T16:57:15.815Z,10.17
2018-11-14T16:59:46.137Z,11.47
2018-11-14T17:02:16.159Z,12.50
2018-11-14T17:04:46.219Z,10.30
2018-11-14T17:07:16.330Z,10.10
2018-11-14T17:09:46.418Z,13.77
2018-11-14T17:12:16.484Z,13.90
2018-11-14T17:14:46.627Z,11.73
2018-11-14T17:17:16.843Z,11.80
2018-11-14T17:19:46.941Z,13.60
2018-11-14T17:22:17.042Z,13.00
2018-11-14T17:24:47.174Z,12.53
2018-11-14T17:27:17.192Z,12.47
2018-11-14T17:29:47.198Z,11.40
2018-11-14T17:32:17.362Z,11.80
2018-11-14T17:34:48.538Z,12.17
2018-11-14T17:37:18.573Z,15.03
2018-11-14T17:39:49.822Z,13.17
2018-11-14T17:42:20.336Z,11.60
2018-11-14T17:44:50.461Z,11.57
2018-11-14T17:47:20.437Z,13.90
2018-11-14T17:49:50.432Z,12.80
2018-11-14T17:52:20.483Z,12.40
2018-11-14T17:54:50.449Z,11.00
2018-11-14T17:57:22.858Z,12.63
2018-11-14T17:59:55.971Z,13.07
2018-11-14T18:02:27.528Z,15.13
2018-11-14T18:04:57.654Z,12.60
2018-11-14T18:07:27.664Z,13.27
2018-11-14T18:09:57.595Z,16.37
2018-11-14T18:12:27.669Z,15.80
2018-11-14T18:14:59.040Z,15.03
2018-11-14T18:17:30.204Z,17.93
2018-11-14T18:20:01.314Z,16.30
2018-11-14T18:22:31.220Z,15.97
2018-11-14T18:25:02.437Z,16.57
2018-11-14T18:27:32.455Z,16.10
2018-11-14T18:30:02.576Z,15.37
2018-11-14T18:32:32.548Z,16.50
2018-11-14T18:35:02.594Z,15.63
2018-11-14T18:37:32.701Z,14.60
2018-11-14T18:40:02.951Z,16.70
2018-11-14T18:42:33.015Z,16.70
2018-11-14T18:45:03.221Z,15.43
2018-11-14T18:47:33.362Z,17.07
2018-11-14T18:50:03.462Z,17.93
2018-11-14T18:52:33.542Z,15.33
2018-11-14T18:55:03.523Z,15.87
2018-11-14T18:57:34.474Z,16.47
2018-11-14T19:00:04.719Z,16.90
2018-11-14T19:02:34.736Z,18.33
2018-11-14T19:05:05.102Z,19.47
2018-11-14T19:07:35.161Z,19.90
2018-11-14T19:10:05.521Z,18.63
2018-11-14T19:12:35.433Z,16.40
2018-11-14T19:15:08.614Z,17.80
2018-11-14T19:17:39.639Z,17.90
2018-11-14T19:20:11.547Z,16.80
2018-11-14T19:22:41.601Z,16.17
2018-11-14T19:25:13.047Z,17.17
2018-11-14T19:27:44.011Z,17.90
2018-11-14T19:30:17.400Z,19.07
2018-11-14T19:32:49.645Z,18.63
2018-11-14T19:35:19.721Z,19.17
2018-11-14T19:37:52.457Z,19.77
2018-11-14T19:40:24.965Z,20.30
2018-11-14T19:42:57.798Z,17.27
2018-11-14T19:45:29.234Z,19.00
2018-11-14T19:47:59.348Z,18.80
2018-11-14T19:50:29.454Z,19.53
2018-11-14T19:52:59.503Z,21.00
2018-11-14T19:55:30.124Z,20.40
2018-11-14T19:58:02.348Z,21.17
2018-11-14T20:00:33.586Z,21.03
2018-11-14T20:03:03.771Z,21.50
2018-11-14T20:05:33.811Z,18.60
2018-11-14T20:08:06.298Z,17.97
2018-11-14T20:10:36.403Z,19.93
2018-11-14T20:13:07.347Z,18.30
2018-11-14T20:15:37.937Z,19.80
2018-11-14T20:18:09.183Z,19.67
2018-11-14T20:20:40.175Z,18.10
2018-11-14T20:23:10.159Z,18.90
2018-11-14T20:25:40.740Z,18.93
2018-11-14T20:28:11.863Z,19.00
2018-11-14T20:30:41.967Z,18.63
2018-11-14T20:33:13.213Z,20.87
2018-11-14T20:35:43.913Z,20.23
2018-11-14T20:38:15.219Z,21.20
2018-11-14T20:40:45.399Z,18.93
2018-11-14T20:43:17.769Z,20.00
2018-11-14T20:45:47.895Z,20.93
2018-11-14T20:48:17.817Z,18.83
2018-11-14T20:50:48.039Z,19.83
2018-11-14T20:53:19.037Z,18.57
2018-11-14T20:55:50.696Z,18.27
2018-11-14T20:58:21.895Z,21.80
2018-11-14T21:00:54.038Z,19.43
2018-11-14T21:03:24.324Z,22.43
2018-11-14T21:05:54.334Z,22.13
2018-11-14T21:08:24.417Z,23.23
2018-11-14T21:10:54.495Z,20.63
2018-11-14T21:13:24.554Z,22.73
2018-11-14T21:15:56.708Z,22.70
2018-11-14T21:18:26.780Z,21.70
2018-11-14T21:20:58.076Z,20.90
2018-11-14T21:23:28.062Z,20.93
2018-11-14T21:25:58.225Z,20.50
2018-11-14T21:28:29.338Z,23.57
2018-11-14T21:30:59.399Z,23.93
2018-11-14T21:33:29.459Z,18.20
2018-11-14T21:36:01.648Z,20.40
2018-11-14T21:38:33.906Z,19.47
2018-11-14T21:41:03.953Z,23.27
2018-11-14T21:43:34.036Z,21.17
2018-11-14T21:46:03.958Z,21.27
2018-11-14T21:48:33.961Z,22.47
2018-11-14T21:51:04.028Z,21.53
2018-11-14T21:53:33.999Z,22.57
2018-11-14T21:56:10.342Z,22.90
2018-11-14T21:58:42.099Z,21.83
2018-11-14T22:01:12.138Z,21.40
2018-11-14T22:03:42.154Z,21.60
2018-11-14T22:06:12.270Z,23.10
2018-11-14T22:08:42.347Z,22.37
2018-11-14T22:11:12.392Z,22.63
2018-11-14T22:13:42.453Z,20.93
2018-11-14T22:16:13.482Z,19.60
2018-11-14T22:18:43.564Z,21.47
2018-11-14T22:21:13.678Z,19.47
2018-11-14T22:23:43.565Z,22.97
2018-11-14T22:26:13.638Z,19.97
2018-11-14T22:28:43.639Z,21.33
2018-11-14T22:31:13.527Z,22.23
2018-11-14T22:33:43.502Z,20.90
2018-11-14T22:36:14.643Z,21.47
2018-11-14T22:38:44.614Z,20.10
2018-11-14T22:41:16.882Z,18.40
2018-11-14T22:43:46.879Z,19.43
2018-11-14T22:46:16.690Z,19.53
2018-11-14T22:48:46.700Z,19.20
2018-11-14T22:51:16.623Z,22.50
2018-11-14T22:53:46.650Z,18.87
2018-11-14T22:56:17.658Z,19.50
2018-11-14T22:58:47.670Z,21.67
2018-11-14T23:01:22.690Z,20.83
2018-11-14T23:03:52.666Z,20.57
2018-11-14T23:06:22.706Z,21.63
2018-11-14T23:08:52.756Z,23.17
2018-11-14T23:11:22.866Z,21.00
2018-11-14T23:13:52.852Z,20.33
2018-11-14T23:16:23.913Z,21.20
2018-11-14T23:18:55.004Z,19.03
2018-11-14T23:21:25.172Z,18.43
2018-11-14T23:23:57.158Z,18.77
2018-11-14T23:26:27.208Z,19.07
2018-11-14T23:28:57.194Z,19.70
2018-11-14T23:31:27.224Z,18.73
2018-11-14T23:33:57.231Z,18.67
2018-11-14T23:36:28.291Z,22.13
2018-11-14T23:38:58.313Z,22.87
2018-11-14T23:41:28.278Z,20.03
2018-11-14T23:43:58.281Z,21.87
2018-11-14T23:46:28.343Z,21.07
2018-11-14T23:48:58.391Z,21.23
2018-11-14T23:51:28.452Z,23.03
2018-11-14T23:53:58.515Z,22.23
2018-11-14T23:56:37.913Z,20.37
2018-11-14T23:59:10.017Z,22.10
